sensor_id;sensor_type;location;lat;lon;timestamp;P1;durP1;ratioP1;P2;durP2;ratioP2
4595;SDS011;2310;49.978;8.742;2022-11-28T00:03:12;12.93;;;10.70;;
4595;SDS011;2310;49.978;8.742;2022-11-28T00:07:14;13.57;;;11.40;;
4595;SDS011;2310;49.978;8.742;2022-11-28T00:11:15;13.83;;;10.57;;
4595;SDS011;2310;49.978;8.742;2022-11-28T00:15:17;12.77;;;10.13;;
4595;SDS011;2310;49.978;8.742;2022-11-28T00:19:18;14.10;;;11.50;;
4595;SDS011;2310;49.978;8.742;2022-11-28T00:23:19;14.80;;;10.83;;
4595;SDS011;2310;49.978;8.742;2022-11-28T00:27:20;11.70;;;10.50;;
4595;SDS011;2310;49.978;8.742;2022-11-28T00:31:23;15.57;;;11.53;;
4595;SDS011;2310;49.978;8.742;2022-11-28T00:35:26;12.43;;;10.90;;
4595;SDS011;2310;49.978;8.742;2022-11-28T00:39:27;13.17;;;11.03;;
4595;SDS011;2310;49.978;8.742;2022-11-28T00:43:29;14.13;;;11.20;;
4595;SDS011;2310;49.978;8.742;2022-11-28T00:47:30;14.30;;;11.27;;
4595;SDS011;2310;49.978;8.742;2022-11-28T00:51:32;13.00;;;11.60;;
4595;SDS011;2310;49.978;8.742;2022-11-28T00:55:34;10.90;;;9.70;;
4595;SDS011;2310;49.978;8.742;2022-11-28T00:59:40;16.43;;;11.00;;
4595;SDS011;2310;49.978;8.742;2022-11-28T01:03:41;12.37;;;10.63;;
4595;SDS011;2310;49.978;8.742;2022-11-28T01:07:43;13.03;;;11.63;;
4595;SDS011;2310;49.978;8.742;2022-11-28T01:11:44;12.37;;;10.87;;
4595;SDS011;2310;49.978;8.742;2022-11-28T01:15:46;13.27;;;11.60;;
4595;SDS011;2310;49.978;8.742;2022-11-28T01:19:47;15.77;;;12.17;;
4595;SDS011;2310;49.978;8.742;2022-11-28T01:23:49;13.23;;;11.23;;
4595;SDS011;2310;49.978;8.742;2022-11-28T01:27:50;15.50;;;12.90;;
4595;SDS011;2310;49.978;8.742;2022-11-28T01:31:51;16.50;;;12.50;;
4595;SDS011;2310;49.978;8.742;2022-11-28T01:35:53;14.73;;;12.50;;
4595;SDS011;2310;49.978;8.742;2022-11-28T01:39:56;13.73;;;12.20;;
4595;SDS011;2310;49.978;8.742;2022-11-28T01:48:22;13.53;;;11.50;;
4595;SDS011;2310;49.978;8.742;2022-11-28T01:52:25;15.10;;;12.03;;
4595;SDS011;2310;49.978;8.742;2022-11-28T01:56:28;16.60;;;12.87;;
4595;SDS011;2310;49.978;8.742;2022-11-28T02:00:32;15.13;;;11.43;;
4595;SDS011;2310;49.978;8.742;2022-11-28T02:04:34;17.70;;;12.57;;
4595;SDS011;2310;49.978;8.742;2022-11-28T02:08:35;14.90;;;11.70;;
4595;SDS011;2310;49.978;8.742;2022-11-28T02:17:03;13.03;;;11.03;;
4595;SDS011;2310;49.978;8.742;2022-11-28T02:21:06;13.47;;;11.57;;
4595;SDS011;2310;49.978;8.742;2022-11-28T02:25:23;12.47;;;11.10;;
4595;SDS011;2310;49.978;8.742;2022-11-28T02:29:35;15.40;;;11.63;;
4595;SDS011;2310;49.978;8.742;2022-11-28T02:33:39;14.80;;;12.20;;
4595;SDS011;2310;49.978;8.742;2022-11-28T02:38:13;14.60;;;11.30;;
4595;SDS011;2310;49.978;8.742;2022-11-28T02:42:07;14.63;;;12.13;;
4595;SDS011;2310;49.978;8.742;2022-11-28T02:46:15;12.33;;;10.97;;
4595;SDS011;2310;49.978;8.742;2022-11-28T02:54:24;16.37;;;12.30;;
4595;SDS011;2310;49.978;8.742;2022-11-28T02:58:27;13.63;;;11.93;;
4595;SDS011;2310;49.978;8.742;2022-11-28T03:02:28;18.53;;;12.33;;
4595;SDS011;2310;49.978;8.742;2022-11-28T03:06:53;15.77;;;11.63;;
4595;SDS011;2310;49.978;8.742;2022-11-28T03:10:51;13.70;;;11.67;;
4595;SDS011;2310;49.978;8.742;2022-11-28T03:14:59;13.50;;;11.40;;
4595;SDS011;2310;49.978;8.742;2022-11-28T03:23:20;14.70;;;12.07;;
4595;SDS011;2310;49.978;8.742;2022-11-28T03:27:31;15.50;;;13.27;;
4595;SDS011;2310;49.978;8.742;2022-11-28T03:31:36;15.07;;;12.10;;
4595;SDS011;2310;49.978;8.742;2022-11-28T03:35:48;14.50;;;12.67;;
4595;SDS011;2310;49.978;8.742;2022-11-28T03:39:53;15.77;;;13.83;;
4595;SDS011;2310;49.978;8.742;2022-11-28T03:43:56;15.60;;;13.13;;
4595;SDS011;2310;49.978;8.742;2022-11-28T03:48:00;16.27;;;13.47;;
4595;SDS011;2310;49.978;8.742;2022-11-28T03:52:11;14.70;;;13.03;;
4595;SDS011;2310;49.978;8.742;2022-11-28T03:56:24;15.23;;;12.47;;
4595;SDS011;2310;49.978;8.742;2022-11-28T04:00:26;13.90;;;12.03;;
4595;SDS011;2310;49.978;8.742;2022-11-28T04:04:45;17.10;;;13.03;;
4595;SDS011;2310;49.978;8.742;2022-11-28T04:09:05;18.87;;;13.37;;
4595;SDS011;2310;49.978;8.742;2022-11-28T04:17:35;16.20;;;14.23;;
4595;SDS011;2310;49.978;8.742;2022-11-28T04:21:52;18.10;;;14.63;;
4595;SDS011;2310;49.978;8.742;2022-11-28T04:26:03;17.80;;;14.87;;
4595;SDS011;2310;49.978;8.742;2022-11-28T04:30:07;18.10;;;14.23;;
4595;SDS011;2310;49.978;8.742;2022-11-28T04:34:10;17.77;;;15.23;;
4595;SDS011;2310;49.978;8.742;2022-11-28T04:38:15;21.30;;;16.47;;
4595;SDS011;2310;49.978;8.742;2022-11-28T04:42:25;17.93;;;14.90;;
4595;SDS011;2310;49.978;8.742;2022-11-28T04:46:34;17.63;;;14.17;;
4595;SDS011;2310;49.978;8.742;2022-11-28T04:50:41;18.30;;;14.20;;
4595;SDS011;2310;49.978;8.742;2022-11-28T04:54:52;22.83;;;15.00;;
4595;SDS011;2310;49.978;8.742;2022-11-28T04:58:58;19.83;;;15.90;;
4595;SDS011;2310;49.978;8.742;2022-11-28T05:03:00;18.43;;;15.47;;
4595;SDS011;2310;49.978;8.742;2022-11-28T05:07:04;17.87;;;15.23;;
4595;SDS011;2310;49.978;8.742;2022-11-28T05:11:07;16.80;;;14.77;;
4595;SDS011;2310;49.978;8.742;2022-11-28T05:15:09;17.63;;;15.23;;
4595;SDS011;2310;49.978;8.742;2022-11-28T05:19:11;18.47;;;14.80;;
4595;SDS011;2310;49.978;8.742;2022-11-28T05:23:12;18.87;;;13.93;;
4595;SDS011;2310;49.978;8.742;2022-11-28T05:27:14;17.90;;;15.37;;
4595;SDS011;2310;49.978;8.742;2022-11-28T05:31:16;17.87;;;14.33;;
4595;SDS011;2310;49.978;8.742;2022-11-28T05:35:19;17.10;;;14.53;;
4595;SDS011;2310;49.978;8.742;2022-11-28T05:39:22;16.80;;;14.00;;
4595;SDS011;2310;49.978;8.742;2022-11-28T05:43:23;17.53;;;14.17;;
4595;SDS011;2310;49.978;8.742;2022-11-28T05:47:24;21.60;;;14.83;;
4595;SDS011;2310;49.978;8.742;2022-11-28T05:51:26;20.23;;;15.23;;
4595;SDS011;2310;49.978;8.742;2022-11-28T05:55:28;18.60;;;14.40;;
4595;SDS011;2310;49.978;8.742;2022-11-28T05:59:29;22.33;;;17.17;;
4595;SDS011;2310;49.978;8.742;2022-11-28T06:03:30;21.40;;;15.10;;
4595;SDS011;2310;49.978;8.742;2022-11-28T06:07:31;17.83;;;14.97;;
4595;SDS011;2310;49.978;8.742;2022-11-28T06:11:33;15.63;;;13.27;;
4595;SDS011;2310;49.978;8.742;2022-11-28T06:15:35;19.10;;;15.80;;
4595;SDS011;2310;49.978;8.742;2022-11-28T06:19:38;20.60;;;15.40;;
4595;SDS011;2310;49.978;8.742;2022-11-28T06:23:39;19.97;;;15.53;;
4595;SDS011;2310;49.978;8.742;2022-11-28T06:27:41;16.63;;;14.43;;
4595;SDS011;2310;49.978;8.742;2022-11-28T06:31:42;19.30;;;14.83;;
4595;SDS011;2310;49.978;8.742;2022-11-28T06:35:43;19.43;;;14.50;;
4595;SDS011;2310;49.978;8.742;2022-11-28T06:39:45;15.90;;;13.77;;
4595;SDS011;2310;49.978;8.742;2022-11-28T06:43:46;17.20;;;14.40;;
4595;SDS011;2310;49.978;8.742;2022-11-28T06:47:47;17.80;;;15.07;;
4595;SDS011;2310;49.978;8.742;2022-11-28T06:51:48;17.93;;;15.77;;
4595;SDS011;2310;49.978;8.742;2022-11-28T06:55:50;19.17;;;15.30;;
4595;SDS011;2310;49.978;8.742;2022-11-28T06:59:51;18.50;;;15.37;;
4595;SDS011;2310;49.978;8.742;2022-11-28T07:03:52;17.13;;;15.00;;
4595;SDS011;2310;49.978;8.742;2022-11-28T07:07:56;17.93;;;14.80;;
4595;SDS011;2310;49.978;8.742;2022-11-28T07:11:58;18.30;;;15.13;;
4595;SDS011;2310;49.978;8.742;2022-11-28T07:15:59;19.30;;;15.50;;
4595;SDS011;2310;49.978;8.742;2022-11-28T07:20:00;18.17;;;15.13;;
4595;SDS011;2310;49.978;8.742;2022-11-28T07:24:01;17.13;;;13.50;;
4595;SDS011;2310;49.978;8.742;2022-11-28T07:28:03;17.67;;;14.30;;
4595;SDS011;2310;49.978;8.742;2022-11-28T07:32:04;17.90;;;14.77;;
4595;SDS011;2310;49.978;8.742;2022-11-28T07:36:14;17.13;;;13.57;;
4595;SDS011;2310;49.978;8.742;2022-11-28T07:40:18;18.90;;;15.20;;
4595;SDS011;2310;49.978;8.742;2022-11-28T07:44:20;16.97;;;13.97;;
4595;SDS011;2310;49.978;8.742;2022-11-28T07:48:21;18.70;;;14.20;;
4595;SDS011;2310;49.978;8.742;2022-11-28T07:52:22;18.03;;;13.70;;
4595;SDS011;2310;49.978;8.742;2022-11-28T07:56:25;15.27;;;13.43;;
4595;SDS011;2310;49.978;8.742;2022-11-28T08:00:31;17.70;;;13.80;;
4595;SDS011;2310;49.978;8.742;2022-11-28T08:04:32;15.93;;;13.20;;
4595;SDS011;2310;49.978;8.742;2022-11-28T08:08:34;15.33;;;13.20;;
4595;SDS011;2310;49.978;8.742;2022-11-28T08:12:35;17.37;;;14.00;;
4595;SDS011;2310;49.978;8.742;2022-11-28T08:16:36;17.10;;;13.00;;
4595;SDS011;2310;49.978;8.742;2022-11-28T08:20:39;15.90;;;13.90;;
4595;SDS011;2310;49.978;8.742;2022-11-28T08:24:40;16.93;;;14.57;;
4595;SDS011;2310;49.978;8.742;2022-11-28T08:28:42;18.43;;;14.10;;
4595;SDS011;2310;49.978;8.742;2022-11-28T08:32:43;16.73;;;13.87;;
4595;SDS011;2310;49.978;8.742;2022-11-28T08:36:45;20.47;;;17.53;;
4595;SDS011;2310;49.978;8.742;2022-11-28T08:40:47;16.70;;;13.60;;
4595;SDS011;2310;49.978;8.742;2022-11-28T08:44:48;18.10;;;14.93;;
4595;SDS011;2310;49.978;8.742;2022-11-28T08:48:49;19.87;;;14.57;;
4595;SDS011;2310;49.978;8.742;2022-11-28T08:52:52;19.90;;;11.57;;
4595;SDS011;2310;49.978;8.742;2022-11-28T08:56:53;23.03;;;14.53;;
4595;SDS011;2310;49.978;8.742;2022-11-28T09:00:54;20.07;;;15.60;;
4595;SDS011;2310;49.978;8.742;2022-11-28T09:04:55;16.33;;;14.60;;
4595;SDS011;2310;49.978;8.742;2022-11-28T09:08:57;18.00;;;16.07;;
4595;SDS011;2310;49.978;8.742;2022-11-28T09:12:58;17.83;;;15.80;;
4595;SDS011;2310;49.978;8.742;2022-11-28T09:16:59;17.77;;;15.70;;
4595;SDS011;2310;49.978;8.742;2022-11-28T09:21:02;18.50;;;16.03;;
4595;SDS011;2310;49.978;8.742;2022-11-28T09:25:07;18.30;;;15.80;;
4595;SDS011;2310;49.978;8.742;2022-11-28T09:29:08;17.30;;;15.07;;
4595;SDS011;2310;49.978;8.742;2022-11-28T09:33:09;21.47;;;16.10;;
4595;SDS011;2310;49.978;8.742;2022-11-28T09:37:12;19.57;;;16.90;;
4595;SDS011;2310;49.978;8.742;2022-11-28T09:45:39;19.57;;;14.70;;
4595;SDS011;2310;49.978;8.742;2022-11-28T09:54:40;17.73;;;14.97;;
4595;SDS011;2310;49.978;8.742;2022-11-28T09:58:37;18.07;;;14.87;;
4595;SDS011;2310;49.978;8.742;2022-11-28T10:20:12;23.03;;;16.73;;
4595;SDS011;2310;49.978;8.742;2022-11-28T10:24:18;19.03;;;16.17;;
4595;SDS011;2310;49.978;8.742;2022-11-28T10:28:23;18.73;;;15.53;;
4595;SDS011;2310;49.978;8.742;2022-11-28T10:32:35;17.50;;;15.47;;
4595;SDS011;2310;49.978;8.742;2022-11-28T10:58:35;16.17;;;13.53;;
4595;SDS011;2310;49.978;8.742;2022-11-28T11:02:36;17.60;;;13.00;;
4595;SDS011;2310;49.978;8.742;2022-11-28T11:06:39;13.47;;;10.90;;
4595;SDS011;2310;49.978;8.742;2022-11-28T11:10:49;12.13;;;9.87;;
4595;SDS011;2310;49.978;8.742;2022-11-28T11:15:17;14.00;;;11.33;;
4595;SDS011;2310;49.978;8.742;2022-11-28T11:19:30;12.10;;;10.83;;
4595;SDS011;2310;49.978;8.742;2022-11-28T11:23:36;13.27;;;10.97;;
4595;SDS011;2310;49.978;8.742;2022-11-28T11:27:46;13.87;;;10.93;;
4595;SDS011;2310;49.978;8.742;2022-11-28T11:31:50;15.60;;;11.30;;
4595;SDS011;2310;49.978;8.742;2022-11-28T11:35:53;13.73;;;11.80;;
4595;SDS011;2310;49.978;8.742;2022-11-28T11:39:54;11.93;;;10.70;;
4595;SDS011;2310;49.978;8.742;2022-11-28T11:43:55;15.77;;;11.20;;
4595;SDS011;2310;49.978;8.742;2022-11-28T11:47:59;12.30;;;10.97;;
4595;SDS011;2310;49.978;8.742;2022-11-28T11:52:06;12.03;;;10.43;;
4595;SDS011;2310;49.978;8.742;2022-11-28T11:56:12;12.67;;;11.37;;
4595;SDS011;2310;49.978;8.742;2022-11-28T12:00:15;11.77;;;10.57;;
4595;SDS011;2310;49.978;8.742;2022-11-28T12:04:22;12.77;;;11.10;;
4595;SDS011;2310;49.978;8.742;2022-11-28T12:08:33;13.90;;;12.03;;
4595;SDS011;2310;49.978;8.742;2022-11-28T12:12:50;14.20;;;12.67;;
4595;SDS011;2310;49.978;8.742;2022-11-28T12:16:55;13.53;;;12.03;;
4595;SDS011;2310;49.978;8.742;2022-11-28T12:21:22;21.60;;;19.40;;
4595;SDS011;2310;49.978;8.742;2022-11-28T12:33:46;14.93;;;12.43;;
4595;SDS011;2310;49.978;8.742;2022-11-28T12:42:13;17.83;;;11.93;;
4595;SDS011;2310;49.978;8.742;2022-11-28T12:50:55;13.67;;;12.27;;
4595;SDS011;2310;49.978;8.742;2022-11-28T13:03:52;12.40;;;11.10;;
4595;SDS011;2310;49.978;8.742;2022-11-28T13:07:57;12.27;;;10.67;;
4595;SDS011;2310;49.978;8.742;2022-11-28T13:12:16;13.70;;;12.10;;
4595;SDS011;2310;49.978;8.742;2022-11-28T13:16:25;11.87;;;10.60;;
4595;SDS011;2310;49.978;8.742;2022-11-28T13:25:05;12.93;;;11.30;;
4595;SDS011;2310;49.978;8.742;2022-11-28T13:29:17;14.07;;;12.30;;
4595;SDS011;2310;49.978;8.742;2022-11-28T13:42:28;13.03;;;11.60;;
4595;SDS011;2310;49.978;8.742;2022-11-28T13:46:33;13.43;;;12.13;;
4595;SDS011;2310;49.978;8.742;2022-11-28T13:50:39;15.10;;;13.10;;
4595;SDS011;2310;49.978;8.742;2022-11-28T13:54:40;19.40;;;14.43;;
4595;SDS011;2310;49.978;8.742;2022-11-28T14:02:56;16.77;;;14.70;;
4595;SDS011;2310;49.978;8.742;2022-11-28T14:07:04;16.93;;;14.07;;
4595;SDS011;2310;49.978;8.742;2022-11-28T14:20:00;16.60;;;14.73;;
4595;SDS011;2310;49.978;8.742;2022-11-28T14:24:22;15.17;;;12.37;;
4595;SDS011;2310;49.978;8.742;2022-11-28T14:28:41;17.73;;;15.03;;
4595;SDS011;2310;49.978;8.742;2022-11-28T14:32:44;16.17;;;14.10;;
4595;SDS011;2310;49.978;8.742;2022-11-28T14:36:45;17.13;;;14.63;;
4595;SDS011;2310;49.978;8.742;2022-11-28T14:44:58;19.87;;;14.43;;
4595;SDS011;2310;49.978;8.742;2022-11-28T14:49:07;18.57;;;14.83;;
4595;SDS011;2310;49.978;8.742;2022-11-28T14:57:37;17.27;;;15.10;;
4595;SDS011;2310;49.978;8.742;2022-11-28T15:02:07;19.60;;;16.40;;
4595;SDS011;2310;49.978;8.742;2022-11-28T15:06:24;20.40;;;18.23;;
4595;SDS011;2310;49.978;8.742;2022-11-28T15:10:36;22.10;;;19.10;;
4595;SDS011;2310;49.978;8.742;2022-11-28T15:14:49;22.00;;;19.80;;
4595;SDS011;2310;49.978;8.742;2022-11-28T15:18:57;23.23;;;19.43;;
4595;SDS011;2310;49.978;8.742;2022-11-28T15:22:56;20.80;;;17.40;;
4595;SDS011;2310;49.978;8.742;2022-11-28T15:31:18;24.93;;;18.40;;
4595;SDS011;2310;49.978;8.742;2022-11-28T15:35:21;28.83;;;22.60;;
4595;SDS011;2310;49.978;8.742;2022-11-28T15:39:35;27.10;;;22.90;;
4595;SDS011;2310;49.978;8.742;2022-11-28T15:43:41;36.47;;;30.33;;
4595;SDS011;2310;49.978;8.742;2022-11-28T15:47:45;27.90;;;24.67;;
4595;SDS011;2310;49.978;8.742;2022-11-28T15:51:50;44.97;;;40.23;;
4595;SDS011;2310;49.978;8.742;2022-11-28T15:56:10;36.53;;;31.70;;
4595;SDS011;2310;49.978;8.742;2022-11-28T16:00:13;32.63;;;28.60;;
4595;SDS011;2310;49.978;8.742;2022-11-28T16:04:16;29.53;;;26.30;;
4595;SDS011;2310;49.978;8.742;2022-11-28T16:08:20;22.00;;;19.90;;
4595;SDS011;2310;49.978;8.742;2022-11-28T16:12:29;26.80;;;22.07;;
4595;SDS011;2310;49.978;8.742;2022-11-28T16:16:32;25.33;;;22.60;;
4595;SDS011;2310;49.978;8.742;2022-11-28T16:20:36;27.20;;;21.37;;
4595;SDS011;2310;49.978;8.742;2022-11-28T16:24:43;25.33;;;22.63;;
4595;SDS011;2310;49.978;8.742;2022-11-28T16:33:50;31.63;;;28.23;;
4595;SDS011;2310;49.978;8.742;2022-11-28T16:37:26;28.47;;;25.43;;
4595;SDS011;2310;49.978;8.742;2022-11-28T16:41:29;25.60;;;21.07;;
4595;SDS011;2310;49.978;8.742;2022-11-28T16:45:31;20.73;;;18.53;;
4595;SDS011;2310;49.978;8.742;2022-11-28T16:49:40;22.80;;;20.37;;
4595;SDS011;2310;49.978;8.742;2022-11-28T16:53:45;20.67;;;18.37;;
4595;SDS011;2310;49.978;8.742;2022-11-28T17:02:21;20.00;;;17.77;;
4595;SDS011;2310;49.978;8.742;2022-11-28T17:06:20;23.83;;;19.20;;
4595;SDS011;2310;49.978;8.742;2022-11-28T17:10:23;26.47;;;20.07;;
4595;SDS011;2310;49.978;8.742;2022-11-28T17:14:27;36.93;;;32.30;;
4595;SDS011;2310;49.978;8.742;2022-11-28T17:18:28;45.03;;;36.90;;
4595;SDS011;2310;49.978;8.742;2022-11-28T17:26:42;28.07;;;24.10;;
4595;SDS011;2310;49.978;8.742;2022-11-28T17:30:43;29.40;;;24.77;;
4595;SDS011;2310;49.978;8.742;2022-11-28T17:34:45;26.20;;;21.43;;
4595;SDS011;2310;49.978;8.742;2022-11-28T17:38:47;23.93;;;18.60;;
4595;SDS011;2310;49.978;8.742;2022-11-28T17:42:48;21.37;;;18.17;;
4595;SDS011;2310;49.978;8.742;2022-11-28T17:46:49;20.87;;;17.90;;
4595;SDS011;2310;49.978;8.742;2022-11-28T17:50:52;21.27;;;18.40;;
4595;SDS011;2310;49.978;8.742;2022-11-28T17:54:53;21.27;;;17.87;;
4595;SDS011;2310;49.978;8.742;2022-11-28T17:58:57;22.90;;;19.80;;
4595;SDS011;2310;49.978;8.742;2022-11-28T18:02:59;21.23;;;18.63;;
4595;SDS011;2310;49.978;8.742;2022-11-28T18:07:01;23.80;;;17.50;;
4595;SDS011;2310;49.978;8.742;2022-11-28T18:11:03;21.53;;;17.73;;
4595;SDS011;2310;49.978;8.742;2022-11-28T18:15:06;22.90;;;19.67;;
4595;SDS011;2310;49.978;8.742;2022-11-28T18:19:09;20.30;;;17.30;;
4595;SDS011;2310;49.978;8.742;2022-11-28T18:23:10;21.80;;;17.57;;
4595;SDS011;2310;49.978;8.742;2022-11-28T18:27:12;24.17;;;19.77;;
4595;SDS011;2310;49.978;8.742;2022-11-28T18:31:15;23.33;;;20.53;;
4595;SDS011;2310;49.978;8.742;2022-11-28T18:35:19;25.07;;;21.40;;
4595;SDS011;2310;49.978;8.742;2022-11-28T18:39:21;25.37;;;22.57;;
4595;SDS011;2310;49.978;8.742;2022-11-28T18:43:22;25.67;;;22.23;;
4595;SDS011;2310;49.978;8.742;2022-11-28T18:47:23;21.77;;;19.53;;
4595;SDS011;2310;49.978;8.742;2022-11-28T18:51:30;23.50;;;20.17;;
4595;SDS011;2310;49.978;8.742;2022-11-28T18:55:32;22.70;;;20.30;;
4595;SDS011;2310;49.978;8.742;2022-11-28T18:59:33;29.67;;;26.40;;
4595;SDS011;2310;49.978;8.742;2022-11-28T19:03:35;28.63;;;23.50;;
4595;SDS011;2310;49.978;8.742;2022-11-28T19:07:37;27.73;;;23.83;;
4595;SDS011;2310;49.978;8.742;2022-11-28T19:11:38;23.83;;;20.73;;
4595;SDS011;2310;49.978;8.742;2022-11-28T19:15:40;23.70;;;19.77;;
4595;SDS011;2310;49.978;8.742;2022-11-28T19:19:41;22.70;;;20.00;;
4595;SDS011;2310;49.978;8.742;2022-11-28T19:23:44;23.67;;;19.93;;
4595;SDS011;2310;49.978;8.742;2022-11-28T19:27:48;26.83;;;20.47;;
4595;SDS011;2310;49.978;8.742;2022-11-28T19:31:49;25.20;;;20.80;;
4595;SDS011;2310;49.978;8.742;2022-11-28T19:35:51;26.67;;;21.10;;
4595;SDS011;2310;49.978;8.742;2022-11-28T19:39:52;27.23;;;20.93;;
4595;SDS011;2310;49.978;8.742;2022-11-28T19:43:53;23.37;;;20.73;;
4595;SDS011;2310;49.978;8.742;2022-11-28T19:47:54;24.60;;;19.60;;
4595;SDS011;2310;49.978;8.742;2022-11-28T19:51:56;23.53;;;19.80;;
4595;SDS011;2310;49.978;8.742;2022-11-28T19:56:01;24.83;;;20.20;;
4595;SDS011;2310;49.978;8.742;2022-11-28T20:00:04;26.40;;;21.03;;
4595;SDS011;2310;49.978;8.742;2022-11-28T20:04:06;26.43;;;21.80;;
4595;SDS011;2310;49.978;8.742;2022-11-28T20:08:07;26.77;;;21.70;;
4595;SDS011;2310;49.978;8.742;2022-11-28T20:12:08;27.27;;;24.30;;
4595;SDS011;2310;49.978;8.742;2022-11-28T20:16:10;32.40;;;29.07;;
4595;SDS011;2310;49.978;8.742;2022-11-28T20:20:12;28.07;;;25.27;;
4595;SDS011;2310;49.978;8.742;2022-11-28T20:24:13;36.53;;;29.00;;
4595;SDS011;2310;49.978;8.742;2022-11-28T20:28:15;27.70;;;21.90;;
4595;SDS011;2310;49.978;8.742;2022-11-28T20:32:16;24.80;;;22.10;;
4595;SDS011;2310;49.978;8.742;2022-11-28T20:36:19;25.90;;;23.10;;
4595;SDS011;2310;49.978;8.742;2022-11-28T20:40:22;26.90;;;21.90;;
4595;SDS011;2310;49.978;8.742;2022-11-28T20:44:23;25.27;;;21.77;;
4595;SDS011;2310;49.978;8.742;2022-11-28T20:48:24;27.60;;;23.53;;
4595;SDS011;2310;49.978;8.742;2022-11-28T20:52:27;22.90;;;20.53;;
4595;SDS011;2310;49.978;8.742;2022-11-28T20:56:29;23.43;;;19.67;;
4595;SDS011;2310;49.978;8.742;2022-11-28T21:00:31;26.90;;;22.00;;
4595;SDS011;2310;49.978;8.742;2022-11-28T21:04:32;25.83;;;20.67;;
4595;SDS011;2310;49.978;8.742;2022-11-28T21:08:34;20.97;;;18.20;;
4595;SDS011;2310;49.978;8.742;2022-11-28T21:12:35;20.47;;;18.27;;
4595;SDS011;2310;49.978;8.742;2022-11-28T21:16:36;24.07;;;18.73;;
4595;SDS011;2310;49.978;8.742;2022-11-28T21:20:39;20.50;;;18.30;;
4595;SDS011;2310;49.978;8.742;2022-11-28T21:24:42;25.80;;;20.70;;
4595;SDS011;2310;49.978;8.742;2022-11-28T21:28:46;21.33;;;18.60;;
4595;SDS011;2310;49.978;8.742;2022-11-28T21:32:50;23.03;;;19.07;;
4595;SDS011;2310;49.978;8.742;2022-11-28T21:36:52;20.50;;;18.13;;
4595;SDS011;2310;49.978;8.742;2022-11-28T21:40:53;20.60;;;18.43;;
4595;SDS011;2310;49.978;8.742;2022-11-28T21:44:54;22.63;;;19.40;;
4595;SDS011;2310;49.978;8.742;2022-11-28T21:48:55;21.10;;;17.97;;
4595;SDS011;2310;49.978;8.742;2022-11-28T21:52:58;21.80;;;18.10;;
4595;SDS011;2310;49.978;8.742;2022-11-28T21:56:59;37.63;;;29.53;;
4595;SDS011;2310;49.978;8.742;2022-11-28T22:01:01;59.00;;;45.87;;
4595;SDS011;2310;49.978;8.742;2022-11-28T22:05:03;33.90;;;29.30;;
4595;SDS011;2310;49.978;8.742;2022-11-28T22:09:05;25.57;;;21.17;;
4595;SDS011;2310;49.978;8.742;2022-11-28T22:13:10;23.93;;;19.93;;
4595;SDS011;2310;49.978;8.742;2022-11-28T22:17:11;18.80;;;16.50;;
4595;SDS011;2310;49.978;8.742;2022-11-28T22:21:12;20.37;;;18.07;;
4595;SDS011;2310;49.978;8.742;2022-11-28T22:25:17;22.17;;;17.80;;
4595;SDS011;2310;49.978;8.742;2022-11-28T22:29:18;20.80;;;18.13;;
4595;SDS011;2310;49.978;8.742;2022-11-28T22:33:20;22.43;;;20.13;;
4595;SDS011;2310;49.978;8.742;2022-11-28T22:37:21;21.67;;;19.40;;
4595;SDS011;2310;49.978;8.742;2022-11-28T22:41:22;24.03;;;19.03;;
4595;SDS011;2310;49.978;8.742;2022-11-28T22:45:26;21.90;;;18.40;;
4595;SDS011;2310;49.978;8.742;2022-11-28T22:49:27;20.27;;;18.17;;
4595;SDS011;2310;49.978;8.742;2022-11-28T22:53:28;23.60;;;20.30;;
4595;SDS011;2310;49.978;8.742;2022-11-28T22:57:29;24.23;;;20.87;;
4595;SDS011;2310;49.978;8.742;2022-11-28T23:01:31;23.10;;;20.10;;
4595;SDS011;2310;49.978;8.742;2022-11-28T23:05:33;20.47;;;18.37;;
4595;SDS011;2310;49.978;8.742;2022-11-28T23:09:36;21.73;;;19.20;;
4595;SDS011;2310;49.978;8.742;2022-11-28T23:13:37;21.63;;;19.37;;
4595;SDS011;2310;49.978;8.742;2022-11-28T23:17:39;21.30;;;18.97;;
4595;SDS011;2310;49.978;8.742;2022-11-28T23:21:41;24.87;;;20.53;;
4595;SDS011;2310;49.978;8.742;2022-11-28T23:25:43;23.80;;;21.00;;
4595;SDS011;2310;49.978;8.742;2022-11-28T23:29:45;24.53;;;21.30;;
4595;SDS011;2310;49.978;8.742;2022-11-28T23:33:46;26.10;;;21.47;;
4595;SDS011;2310;49.978;8.742;2022-11-28T23:37:47;22.30;;;19.83;;
4595;SDS011;2310;49.978;8.742;2022-11-28T23:41:48;22.37;;;20.00;;
4595;SDS011;2310;49.978;8.742;2022-11-28T23:45:50;23.50;;;20.57;;
4595;SDS011;2310;49.978;8.742;2022-11-28T23:49:51;28.00;;;22.07;;
4595;SDS011;2310;49.978;8.742;2022-11-28T23:53:52;23.60;;;20.17;;
4595;SDS011;2310;49.978;8.742;2022-11-28T23:57:53;22.13;;;19.00;;
